Stations météo

réclame
Mon MeteoGroup
Vinaroz, Espagne (8239): Température de l'air & dewpoint: 11.01.2018 08:00:00 - 17.01.2018 08:00:00 (CET)Vinaroz, Espagne (8239): Vitesse du vent & gusts: 11.01.2018 08:00:00 - 17.01.2018 08:00:00 (CET)Vinaroz, Espagne (8239): Direction du vent: 11.01.2018 08:00:00 - 17.01.2018 08:00:00 (CET)Vinaroz, Espagne (8239): Quantités de précipitations: 11.01.2018 08:00:00 - 17.01.2018 08:00:00 (CET)
Date & Time tt [°C] td [°C] ff [km/h] ff [knt] fx [km/h] fx [knt] dd rr [mm]
17.01.2018 08:00:00 - - - - - - - -
17.01.2018 07:00:00 16,4 3,4 26 14 54 29 NW -
17.01.2018 06:00:00 16,7 3,8 10 5 36 20 NNW 0,0
17.01.2018 05:00:00 14,0 2,3 4 2 20 11 SSE 0,0
17.01.2018 04:00:00 15,6 3,0 11 6 21 12 WNW 0,0
17.01.2018 03:00:00 15,3 2,9 10 5 18 10 W 0,0
17.01.2018 02:00:00 15,8 3,2 10 6 31 17 W 0,0
17.01.2018 01:00:00 15,5 3,6 22 12 44 24 WNW -
17.01.2018 00:00:00 15,5 3,6 23 12 37 20 WNW 0,0
16.01.2018 23:00:00 16,2 3,2 21 12 35 19 W 0,0
16.01.2018 22:00:00 16,1 3,6 10 5 22 12 NW 0,0
16.01.2018 21:00:00 16,4 3,8 13 7 24 13 W 0,0
16.01.2018 20:00:00 17,2 4,5 15 8 24 13 W 0,0
16.01.2018 19:00:00 16,2 2,9 4 2 27 15 SSW -
16.01.2018 18:00:00 18,1 2,9 11 6 23 13 W 0,0
16.01.2018 17:00:00 21,7 4,3 8 4 29 16 W 0,0
16.01.2018 16:00:00 22,6 4,1 13 7 30 16 WNW 0,0
16.01.2018 15:00:00 22,6 4,1 15 8 31 17 W 0,0
16.01.2018 14:00:00 21,7 3,4 16 9 41 22 W 0,0
16.01.2018 13:00:00 21,3 3,4 26 14 45 24 WNW -
16.01.2018 12:00:00 20,4 3,2 16 8 39 21 W 0,0
16.01.2018 11:00:00 18,7 2,9 14 7 24 13 W 0,0
16.01.2018 10:00:00 17,1 3,0 15 8 45 24 W 0,0
16.01.2018 09:00:00 15,9 3,9 12 6 39 21 WNW 0,0
16.01.2018 08:00:00 9,8 0,4 1 0 10 6 N 0,0
16.01.2018 07:00:00 8,2 -1,2 6 4 17 9 NNW -
16.01.2018 06:00:00 6,9 -1,0 4 2 10 6 NNE 0,0
16.01.2018 05:00:00 6,0 -0,5 5 3 11 6 NE 0,0
16.01.2018 04:00:00 4,9 -0,7 5 3 9 5 NE 0,0
16.01.2018 03:00:00 5,1 -0,5 5 3 10 5 N 0,0
16.01.2018 02:00:00 5,6 0,2 6 3 13 7 NNW 0,0
16.01.2018 01:00:00 6,0 0,6 9 5 16 9 NNW -
16.01.2018 00:00:00 5,0 0,9 7 4 11 6 NNW 0,0
15.01.2018 23:00:00 4,3 0,0 4 2 7 4 NNE 0,0
15.01.2018 22:00:00 5,3 1,1 4 2 8 5 NNE 0,0
15.01.2018 21:00:00 6,3 2,1 3 2 9 5 NNW 0,0
15.01.2018 20:00:00 7,4 2,3 0 0 9 5 N 0,0
15.01.2018 19:00:00 9,0 2,5 4 2 9 5 S -
15.01.2018 18:00:00 10,0 1,3 5 3 16 8 SSE 0,0
15.01.2018 17:00:00 12,6 1,1 8 4 18 10 S 0,0
15.01.2018 16:00:00 13,8 1,5 7 4 18 10 SSW 0,0
15.01.2018 15:00:00 14,5 2,1 9 5 20 11 S 0,0
15.01.2018 14:00:00 14,6 1,5 9 5 18 10 S 0,0
15.01.2018 13:00:00 14,5 1,5 7 4 15 8 SSE -
15.01.2018 12:00:00 13,8 0,0 3 2 9 5 E 0,0
15.01.2018 11:00:00 11,7 0,9 6 3 9 5 ENE 0,0
15.01.2018 10:00:00 8,2 2,1 1 1 8 4 NNE 0,0
15.01.2018 09:00:00 3,8 -0,3 4 2 9 5 NE 0,0
15.01.2018 08:00:00 1,9 -1,2 8 4 14 7 NNE 0,0
15.01.2018 07:00:00 1,7 -1,4 6 4 10 6 NNE -
15.01.2018 06:00:00 2,7 -0,7 7 4 11 6 N 0,0
15.01.2018 05:00:00 - - - - - - - -
15.01.2018 04:00:00 - - - - - - - -
15.01.2018 03:00:00 4,2 0,2 6 4 14 8 NNE 0,0
15.01.2018 02:00:00 2,9 -1,0 4 2 8 5 ENE 0,0
15.01.2018 01:00:00 3,3 -0,7 3 2 10 5 NNE -
15.01.2018 00:00:00 4,0 -0,3 4 2 12 6 WNW 0,0
14.01.2018 23:00:00 4,8 -0,3 5 3 11 6 NW 0,0
14.01.2018 22:00:00 5,8 0,2 3 2 10 5 N 0,0
14.01.2018 21:00:00 7,4 0,6 7 4 12 7 NE 0,0
14.01.2018 20:00:00 8,1 0,4 8 5 12 7 NNW 0,0
14.01.2018 19:00:00 10,0 1,3 5 3 7 4 NW -
14.01.2018 18:00:00 11,3 0,6 3 2 9 5 SE 0,0
14.01.2018 17:00:00 12,1 0,4 5 3 13 7 SE 0,0
14.01.2018 16:00:00 12,6 0,0 8 5 20 11 SSE 0,0
14.01.2018 15:00:00 13,1 -0,5 12 7 19 10 SSE 0,0
14.01.2018 14:00:00 13,3 -1,2 7 4 14 8 S 0,0
14.01.2018 13:00:00 14,9 -1,0 4 2 28 15 N -
14.01.2018 12:00:00 14,5 0,0 11 6 26 14 WNW 0,0
14.01.2018 11:00:00 12,5 -0,7 14 7 29 16 WNW 0,0
14.01.2018 10:00:00 11,3 -1,0 16 9 29 15 NW 0,0
14.01.2018 09:00:00 8,3 -0,3 7 4 14 8 S 0,0
14.01.2018 08:00:00 8,4 -0,7 11 6 23 12 W 0,0
14.01.2018 07:00:00 7,8 -0,7 11 6 16 9 W -
14.01.2018 06:00:00 8,7 0,4 9 5 14 8 WNW 0,0
14.01.2018 05:00:00 6,9 0,0 6 3 28 15 NNE 0,0
14.01.2018 04:00:00 5,9 2,5 5 3 19 11 NNW 0,0
14.01.2018 03:00:00 5,8 3,0 6 3 13 7 N 0,0
14.01.2018 02:00:00 7,1 3,4 6 3 15 8 NNE 0,0
14.01.2018 01:00:00 8,2 4,6 7 4 12 6 NNE -
14.01.2018 00:00:00 8,2 5,0 7 4 10 5 NE 0,0
13.01.2018 23:00:00 - - - - - - - -
13.01.2018 22:00:00 - - - - - - - -
13.01.2018 21:00:00 - - - - - - - -
13.01.2018 20:00:00 - - - - - - - -
13.01.2018 19:00:00 - - - - - - - -
13.01.2018 18:00:00 - - - - - - - -
13.01.2018 17:00:00 - - - - - - - -
13.01.2018 16:00:00 - - - - - - - -
13.01.2018 15:00:00 - - - - - - - -
13.01.2018 14:00:00 - - - - - - - -
13.01.2018 13:00:00 - - - - - - - -
13.01.2018 12:00:00 - - - - - - - -
13.01.2018 11:00:00 - - - - - - - -
13.01.2018 10:00:00 7,4 2,1 5 3 9 5 NNW 0,0
13.01.2018 09:00:00 4,0 0,9 6 3 9 5 NNW 0,0
13.01.2018 08:00:00 2,6 -0,3 5 3 8 4 N 0,0
13.01.2018 07:00:00 - - - - - - - -
13.01.2018 06:00:00 2,1 -1,0 4 2 11 6 N 0,0
13.01.2018 05:00:00 2,9 -1,0 9 5 13 7 N 0,0
13.01.2018 04:00:00 3,4 -0,7 7 4 14 8 N 0,0
13.01.2018 03:00:00 4,2 -0,5 7 4 10 6 NNW 0,0
13.01.2018 02:00:00 4,6 -0,3 6 3 16 9 N 0,0
13.01.2018 01:00:00 5,2 0,2 7 4 16 8 NNW -
13.01.2018 00:00:00 5,6 0,2 6 3 10 6 NNW 0,0
12.01.2018 23:00:00 - - - - - - - -
12.01.2018 22:00:00 6,4 0,9 7 4 11 6 N 0,0
12.01.2018 21:00:00 5,9 1,3 6 3 11 6 NNE 0,0
12.01.2018 20:00:00 9,2 2,3 2 1 8 4 NE 0,0
12.01.2018 19:00:00 9,6 1,9 3 2 10 5 NW -
12.01.2018 18:00:00 11,2 1,5 7 4 17 9 E 0,0
12.01.2018 17:00:00 13,6 0,9 6 4 22 12 E 0,0
12.01.2018 16:00:00 14,7 -1,4 12 7 29 16 WNW 0,0
12.01.2018 15:00:00 16,7 -0,5 13 7 27 15 WNW 0,0
12.01.2018 14:00:00 16,9 0,0 10 6 20 11 NW 0,0
12.01.2018 13:00:00 16,4 0,0 9 5 27 15 WNW -
12.01.2018 12:00:00 15,6 0,2 11 6 29 16 NW 0,0
12.01.2018 11:00:00 14,1 0,0 13 7 35 19 WNW 0,0
12.01.2018 10:00:00 12,1 -0,5 8 5 23 12 NW 0,0
12.01.2018 09:00:00 8,5 -2,2 6 3 11 6 W 0,0
12.01.2018 08:00:00 8,9 -2,2 7 4 28 15 NW 0,0
12.01.2018 07:00:00 9,7 -1,7 13 7 24 13 NW -
12.01.2018 06:00:00 9,9 -1,4 16 9 46 25 WNW 0,0
12.01.2018 05:00:00 9,8 -1,0 19 10 32 17 WNW 0,0
12.01.2018 04:00:00 8,9 -1,4 15 8 29 15 NW 0,0
12.01.2018 03:00:00 7,6 -2,5 9 5 21 12 NNW 0,0
12.01.2018 02:00:00 9,3 -2,7 16 8 34 18 WNW 0,0
12.01.2018 01:00:00 10,0 -2,5 14 8 32 18 NW -
12.01.2018 00:00:00 10,0 -2,5 15 8 42 23 NW 0,0
11.01.2018 23:00:00 10,0 -3,0 16 9 29 16 WNW 0,0
11.01.2018 22:00:00 10,5 -3,3 12 7 28 15 WNW 0,0
11.01.2018 21:00:00 9,6 -4,2 4 2 14 8 WNW 0,0
11.01.2018 20:00:00 11,5 -4,2 4 2 61 33 NW 0,0
11.01.2018 19:00:00 12,1 -3,6 25 13 54 29 NNW -
11.01.2018 18:00:00 12,0 -4,2 18 10 39 21 WNW 0,0
11.01.2018 17:00:00 14,0 -3,9 9 5 29 15 WNW 0,0
11.01.2018 16:00:00 13,3 -4,5 14 8 49 26 WNW 0,0
11.01.2018 15:00:00 15,9 -2,7 18 10 45 25 NW 0,0
11.01.2018 14:00:00 13,3 -4,5 19 10 42 23 NW 0,0
11.01.2018 13:00:00 14,8 -3,6 15 8 39 21 NNW -
11.01.2018 12:00:00 15,0 -2,5 16 9 34 18 NW 0,0
11.01.2018 11:00:00 13,5 -3,0 14 8 31 17 WNW 0,0
11.01.2018 10:00:00 11,8 -3,3 13 7 36 19 WNW 0,0
11.01.2018 09:00:00 10,9 -3,6 16 9 61 33 NW 0,0
11.01.2018 08:00:00 10,5 -3,9 26 14 46 25 WNW 0,0

tt = Température de l'air
td = dewpoint
ff = Vitesse du vent
fx = gusts
dd = Direction du vent
rr = Quantités de précipitations

stations d'obs. à proximité